Time;durP1;ratioP1;P1;durP2;ratioP2;P2;SDS_P1;SDS_P2;PMS_P1;PMS_P2;Temp;Humidity;BMP_temperature;BMP_pressure;BME280_temperature;BME280_humidity;BME280_pressure;Samples;Min_cycle;Max_cycle;Signal;HPM_P1;HPM_P2
2021/07/07 00:00:08;;;;;;;1.87;1.43;;;;;;;;;;5034193;28;20449;-60
2021/07/07 00:02:35;;;;;;;3.10;1.67;;;;;;;;;;5034234;28;20461;-60
2021/07/07 00:05:03;;;;;;;2.40;1.97;;;;;;;;;;5034584;28;20945;-60
2021/07/07 00:07:30;;;;;;;2.27;1.40;;;;;;;;;;5034561;28;20449;-60
2021/07/07 00:09:59;;;;;;;3.10;1.80;;;;;;;;;;5033752;28;20453;-60
2021/07/07 00:12:26;;;;;;;4.20;1.43;;;;;;;;;;5033650;28;20480;-60
2021/07/07 00:14:53;;;;;;;2.90;1.10;;;;;;;;;;5033642;28;20445;-60
2021/07/07 00:17:21;;;;;;;2.63;1.53;;;;;;;;;;5033649;28;20449;-60
2021/07/07 00:19:48;;;;;;;3.07;1.47;;;;;;;;;;5033650;28;20445;-60
2021/07/07 00:22:15;;;;;;;3.37;1.27;;;;;;;;;;5033698;28;20473;-60
2021/07/07 00:24:42;;;;;;;3.63;1.63;;;;;;;;;;5037040;28;20503;-60
2021/07/07 00:27:11;;;;;;;2.50;1.70;;;;;;;;;;5037403;28;20933;-60
2021/07/07 00:29:38;;;;;;;1.83;1.33;;;;;;;;;;5037386;28;20452;-60
2021/07/07 00:32:06;;;;;;;2.40;1.73;;;;;;;;;;5037341;28;20543;-60
2021/07/07 00:34:33;;;;;;;1.50;1.30;;;;;;;;;;5037756;28;20425;-60
2021/07/07 00:37:02;;;;;;;3.43;1.77;;;;;;;;;;5037666;28;20449;-60
2021/07/07 00:39:29;;;;;;;2.17;1.40;;;;;;;;;;5037713;28;20488;-60
2021/07/07 00:41:56;;;;;;;7.30;1.87;;;;;;;;;;5037508;28;20976;-60
2021/07/07 00:44:25;;;;;;;2.70;1.60;;;;;;;;;;5037218;28;20494;-60
2021/07/07 00:46:52;;;;;;;3.00;1.83;;;;;;;;;;5037156;28;20944;-60
2021/07/07 00:49:19;;;;;;;3.23;1.77;;;;;;;;;;5037437;28;20444;-60
2021/07/07 00:51:47;;;;;;;1.83;1.57;;;;;;;;;;5036958;28;20445;-60
2021/07/07 00:54:15;;;;;;;1.97;1.10;;;;;;;;;;5037186;28;20484;-60
2021/07/07 00:56:44;;;;;;;2.23;1.50;;;;;;;;;;5037697;28;20487;-60
2021/07/07 00:59:11;;;;;;;4.27;1.67;;;;;;;;;;5037202;28;20926;-60
2021/07/07 01:01:41;;;;;;;2.10;1.63;;;;;;;;;;5036949;28;20526;-59
2021/07/07 01:04:09;;;;;;;2.43;1.30;;;;;;;;;;5036489;28;20533;-60
2021/07/07 01:06:36;;;;;;;2.40;1.57;;;;;;;;;;5036943;28;20437;-60
2021/07/07 01:09:04;;;;;;;4.50;1.70;;;;;;;;;;5036962;28;20503;-60
2021/07/07 01:11:33;;;;;;;2.07;1.90;;;;;;;;;;5036485;28;20441;-60
2021/07/07 01:14:01;;;;;;;1.90;1.60;;;;;;;;;;5036598;28;20491;-60
2021/07/07 01:16:28;;;;;;;3.00;1.50;;;;;;;;;;5036370;28;20449;-59
2021/07/07 01:18:57;;;;;;;4.17;1.40;;;;;;;;;;5036593;28;20507;-59
2021/07/07 01:21:24;;;;;;;2.37;1.40;;;;;;;;;;5036222;28;20445;-59
2021/07/07 01:23:53;;;;;;;2.27;1.50;;;;;;;;;;5036202;28;20461;-60
2021/07/07 01:26:20;;;;;;;2.13;1.70;;;;;;;;;;5036293;28;20445;-60
2021/07/07 01:28:48;;;;;;;1.83;1.60;;;;;;;;;;5035987;28;20448;-60
2021/07/07 01:31:15;;;;;;;3.63;2.00;;;;;;;;;;5038026;28;20445;-60
2021/07/07 01:33:43;;;;;;;6.20;1.73;;;;;;;;;;5037978;28;21077;-60
2021/07/07 01:36:10;;;;;;;2.33;1.43;;;;;;;;;;5043020;28;20471;-60
2021/07/07 01:38:37;;;;;;;2.00;1.60;;;;;;;;;;5045843;28;20457;-60
2021/07/07 01:41:06;;;;;;;2.07;1.33;;;;;;;;;;5045688;28;20449;-60
2021/07/07 01:43:33;;;;;;;2.80;1.40;;;;;;;;;;5046680;28;20461;-60
2021/07/07 01:46:00;;;;;;;2.60;1.60;;;;;;;;;;5039838;28;20445;-60
2021/07/07 01:48:28;;;;;;;2.70;1.97;;;;;;;;;;5041613;28;20491;-60
2021/07/07 01:50:55;;;;;;;2.37;1.63;;;;;;;;;;5038525;28;20515;-60
2021/07/07 01:53:22;;;;;;;2.33;1.57;;;;;;;;;;5036387;28;20481;-61
2021/07/07 01:55:50;;;;;;;1.87;1.77;;;;;;;;;;5036084;28;20441;-60
2021/07/07 01:58:19;;;;;;;2.83;1.70;;;;;;;;;;5039658;28;20515;-60
2021/07/07 02:00:46;;;;;;;2.30;1.80;;;;;;;;;;5039030;28;20445;-60
2021/07/07 02:03:14;;;;;;;2.70;1.80;;;;;;;;;;5035687;28;20539;-60
2021/07/07 02:05:41;;;;;;;3.77;1.50;;;;;;;;;;5035769;28;20445;-60
2021/07/07 02:08:09;;;;;;;3.03;1.90;;;;;;;;;;5035593;28;20507;-60
2021/07/07 02:10:37;;;;;;;1.90;1.70;;;;;;;;;;5035290;28;20445;-60
2021/07/07 02:13:05;;;;;;;1.97;1.63;;;;;;;;;;5035008;28;20959;-60
2021/07/07 02:15:35;;;;;;;2.03;1.83;;;;;;;;;;5035331;28;20441;-60
2021/07/07 02:18:03;;;;;;;4.60;2.87;;;;;;;;;;5035325;28;20522;-60
2021/07/07 02:20:31;;;;;;;3.33;1.90;;;;;;;;;;5034899;28;21064;-60
2021/07/07 02:22:59;;;;;;;4.17;1.70;;;;;;;;;;5034879;28;20464;-60
2021/07/07 02:25:28;;;;;;;3.77;1.90;;;;;;;;;;5035165;28;20452;-60
2021/07/07 02:27:56;;;;;;;5.20;1.93;;;;;;;;;;5035172;28;20548;-59
2021/07/07 02:30:24;;;;;;;2.53;1.70;;;;;;;;;;5035147;28;20448;-60
2021/07/07 02:32:56;;;;;;;4.00;1.97;;;;;;;;;;5035791;28;20485;-60
2021/07/07 02:35:25;;;;;;;2.53;1.70;;;;;;;;;;5034962;28;20479;-60
2021/07/07 02:37:54;;;;;;;5.20;2.23;;;;;;;;;;5034611;28;20491;-59
2021/07/07 02:40:21;;;;;;;2.27;1.93;;;;;;;;;;5034610;28;20948;-60
2021/07/07 02:42:49;;;;;;;2.80;2.10;;;;;;;;;;5034752;28;20468;-60
2021/07/07 02:45:17;;;;;;;3.33;1.80;;;;;;;;;;5034828;28;20448;-60
2021/07/07 02:47:45;;;;;;;2.63;1.63;;;;;;;;;;5033605;28;20448;-60
2021/07/07 02:50:15;;;;;;;1.90;1.40;;;;;;;;;;5034866;28;20472;-60
2021/07/07 02:52:44;;;;;;;1.80;1.50;;;;;;;;;;5034477;28;21035;-60
2021/07/07 02:55:11;;;;;;;2.53;1.90;;;;;;;;;;5034964;28;20434;-60
2021/07/07 02:57:57;;;;;;;2.43;2.10;;;;;;;;;;5034928;28;20502;-60
2021/07/07 03:00:25;;;;;;;4.77;1.70;;;;;;;;;;5034286;28;20806;-60
2021/07/07 03:02:52;;;;;;;4.60;1.73;;;;;;;;;;5034550;28;20539;-60
2021/07/07 03:05:21;;;;;;;4.20;1.57;;;;;;;;;;5034340;28;20850;-60
2021/07/07 03:07:48;;;;;;;7.10;2.20;;;;;;;;;;5034312;28;20456;-59
2021/07/07 03:10:16;;;;;;;2.27;2.07;;;;;;;;;;5034047;28;20445;-60
2021/07/07 03:12:43;;;;;;;4.70;1.90;;;;;;;;;;5034038;28;21019;-60
2021/07/07 03:15:11;;;;;;;4.40;1.93;;;;;;;;;;5034112;28;20476;-60
2021/07/07 03:17:38;;;;;;;2.50;2.13;;;;;;;;;;5034202;28;20445;-60
2021/07/07 03:20:06;;;;;;;3.40;2.00;;;;;;;;;;5034232;28;20453;-61
2021/07/07 03:22:35;;;;;;;4.60;2.43;;;;;;;;;;5034126;28;20864;-60
2021/07/07 03:25:02;;;;;;;2.63;2.03;;;;;;;;;;5033705;28;20449;-59
2021/07/07 03:27:29;;;;;;;3.90;2.10;;;;;;;;;;5033617;28;20445;-59
2021/07/07 03:29:57;;;;;;;2.63;1.90;;;;;;;;;;5033973;28;20453;-60
2021/07/07 03:32:24;;;;;;;3.73;1.90;;;;;;;;;;5033369;28;20476;-60
2021/07/07 03:34:51;;;;;;;4.17;2.13;;;;;;;;;;5033701;28;20510;-60
2021/07/07 03:37:18;;;;;;;3.53;2.37;;;;;;;;;;5033781;28;20445;-59
2021/07/07 03:39:47;;;;;;;2.83;2.07;;;;;;;;;;5033388;28;20449;-60
2021/07/07 03:42:14;;;;;;;5.67;1.97;;;;;;;;;;5033369;28;20496;-60
2021/07/07 03:44:42;;;;;;;3.43;2.30;;;;;;;;;;5033763;28;20445;-60
2021/07/07 03:47:09;;;;;;;3.47;1.50;;;;;;;;;;5033358;28;20441;-59
2021/07/07 03:49:36;;;;;;;2.47;1.80;;;;;;;;;;5033365;28;20449;-60
2021/07/07 03:52:04;;;;;;;2.57;1.93;;;;;;;;;;5033429;28;20507;-60
2021/07/07 03:54:31;;;;;;;2.90;1.80;;;;;;;;;;5033354;28;20991;-60
2021/07/07 03:57:00;;;;;;;2.07;1.70;;;;;;;;;;5033173;28;20942;-60
2021/07/07 03:59:28;;;;;;;2.80;2.00;;;;;;;;;;5032932;28;20456;-58
2021/07/07 04:01:55;;;;;;;2.87;1.90;;;;;;;;;;5033378;28;20468;-59
2021/07/07 04:04:22;;;;;;;3.67;2.10;;;;;;;;;;5033522;28;20817;-60
2021/07/07 04:08:18;;;;;;;4.10;2.47;;;;;;;;;;5091819;27;20951;-61
2021/07/07 04:10:46;;;;;;;2.23;1.80;;;;;;;;;;5091271;28;20492;-61
2021/07/07 04:13:13;;;;;;;2.03;1.83;;;;;;;;;;5090997;28;20467;-61
2021/07/07 04:15:40;;;;;;;2.33;1.87;;;;;;;;;;5091050;28;20523;-61
2021/07/07 04:18:09;;;;;;;2.43;1.80;;;;;;;;;;5091840;28;20442;-59
2021/07/07 04:20:36;;;;;;;2.70;1.80;;;;;;;;;;5090641;28;20485;-60
2021/07/07 04:23:04;;;;;;;4.40;2.07;;;;;;;;;;5090518;28;20458;-60
2021/07/07 04:25:32;;;;;;;2.90;2.27;;;;;;;;;;5090908;28;20852;-60
2021/07/07 04:28:00;;;;;;;5.30;2.00;;;;;;;;;;5090855;28;20478;-61
2021/07/07 04:30:27;;;;;;;2.90;1.90;;;;;;;;;;5090352;28;20995;-60
2021/07/07 04:32:54;;;;;;;2.63;2.07;;;;;;;;;;5090887;28;20880;-60
2021/07/07 04:35:22;;;;;;;5.27;2.07;;;;;;;;;;5090234;28;20450;-61
2021/07/07 04:37:50;;;;;;;4.90;2.07;;;;;;;;;;5090489;28;20935;-60
2021/07/07 04:40:17;;;;;;;2.40;1.70;;;;;;;;;;5091393;28;20438;-60
2021/07/07 04:42:46;;;;;;;2.93;1.90;;;;;;;;;;5093136;28;20466;-60
2021/07/07 04:45:14;;;;;;;1.77;1.67;;;;;;;;;;5108590;28;20443;-59
2021/07/07 04:47:42;;;;;;;6.10;1.70;;;;;;;;;;5110217;28;20535;-60
2021/07/07 04:50:10;;;;;;;1.73;1.40;;;;;;;;;;5108987;28;20468;-60
2021/07/07 04:52:38;;;;;;;5.00;2.07;;;;;;;;;;5107231;28;20523;-60
2021/07/07 04:55:06;;;;;;;2.13;1.93;;;;;;;;;;5091249;28;20454;-58
2021/07/07 04:57:40;;;;;;;6.70;2.03;;;;;;;;;;5090604;28;20439;-60
2021/07/07 05:00:10;;;;;;;2.33;2.00;;;;;;;;;;5089973;28;20524;-60
2021/07/07 05:02:37;;;;;;;4.50;2.40;;;;;;;;;;5090637;28;20462;-59
2021/07/07 05:05:05;;;;;;;4.73;2.20;;;;;;;;;;5090225;28;20950;-60
2021/07/07 05:07:33;;;;;;;3.53;2.30;;;;;;;;;;5089775;28;20478;-60
2021/07/07 05:10:01;;;;;;;5.17;2.27;;;;;;;;;;5090629;28;20534;-60
2021/07/07 05:12:28;;;;;;;3.30;1.90;;;;;;;;;;5090239;28;20839;-59
2021/07/07 05:14:56;;;;;;;3.60;2.67;;;;;;;;;;5090136;28;20809;-61
2021/07/07 05:17:25;;;;;;;7.03;2.67;;;;;;;;;;5089409;28;20897;-60
2021/07/07 05:19:53;;;;;;;2.77;2.10;;;;;;;;;;5076097;28;20443;-61
2021/07/07 05:22:20;;;;;;;7.30;2.00;;;;;;;;;;5076921;28;20880;-60
2021/07/07 05:24:48;;;;;;;4.57;2.00;;;;;;;;;;5076406;28;20500;-62
2021/07/07 05:27:15;;;;;;;6.33;2.87;;;;;;;;;;5076556;28;20993;-61
2021/07/07 05:29:43;;;;;;;4.20;1.90;;;;;;;;;;5076555;28;20443;-61
2021/07/07 05:32:11;;;;;;;3.10;1.87;;;;;;;;;;5075857;28;20971;-61
2021/07/07 05:34:40;;;;;;;4.73;2.10;;;;;;;;;;5076880;28;20447;-61
2021/07/07 05:37:08;;;;;;;3.07;2.10;;;;;;;;;;5075710;28;20443;-61
2021/07/07 05:39:35;;;;;;;3.10;1.87;;;;;;;;;;5077008;28;20443;-60
2021/07/07 05:42:02;;;;;;;6.90;2.90;;;;;;;;;;5077805;28;20578;-60
2021/07/07 05:44:29;;;;;;;7.00;1.70;;;;;;;;;;5076908;28;20516;-62
2021/07/07 05:46:57;;;;;;;7.37;3.33;;;;;;;;;;5079474;28;20478;-61
2021/07/07 05:49:24;;;;;;;4.27;2.77;;;;;;;;;;5079494;28;20455;-61
2021/07/07 05:51:52;;;;;;;3.20;1.70;;;;;;;;;;5078734;28;20524;-62
2021/07/07 05:54:20;;;;;;;4.00;2.17;;;;;;;;;;5079455;28;20836;-62
2021/07/07 05:56:47;;;;;;;4.60;2.07;;;;;;;;;;5078963;28;20443;-63
2021/07/07 05:59:14;;;;;;;3.17;1.80;;;;;;;;;;5078849;28;20997;-62
2021/07/07 06:01:41;;;;;;;3.43;2.23;;;;;;;;;;5078602;28;20452;-63
2021/07/07 06:04:09;;;;;;;5.70;2.07;;;;;;;;;;5076111;28;20451;-62
2021/07/07 06:06:36;;;;;;;4.93;2.77;;;;;;;;;;5075444;28;20455;-62
2021/07/07 06:09:05;;;;;;;3.00;1.70;;;;;;;;;;5075414;28;20453;-61
2021/07/07 06:11:32;;;;;;;3.17;2.33;;;;;;;;;;5075168;28;20451;-62
2021/07/07 06:13:59;;;;;;;7.87;2.40;;;;;;;;;;5075407;28;20447;-60
2021/07/07 06:16:26;;;;;;;6.43;2.43;;;;;;;;;;5074636;28;20492;-60
2021/07/07 06:18:54;;;;;;;6.40;2.30;;;;;;;;;;5074505;28;20439;-61
2021/07/07 06:21:21;;;;;;;5.40;2.70;;;;;;;;;;5075072;28;20516;-58
2021/07/07 06:23:48;;;;;;;7.00;2.93;;;;;;;;;;5074769;28;20524;-61
2021/07/07 06:26:17;;;;;;;4.70;2.40;;;;;;;;;;5074947;28;20455;-62
2021/07/07 06:28:44;;;;;;;2.93;2.20;;;;;;;;;;5074564;28;20479;-61
2021/07/07 06:31:11;;;;;;;4.67;2.00;;;;;;;;;;5073167;28;20443;-60
2021/07/07 06:33:38;;;;;;;3.70;1.97;;;;;;;;;;5074578;28;20463;-62
2021/07/07 06:36:06;;;;;;;4.63;2.10;;;;;;;;;;5074306;28;20503;-62
2021/07/07 06:38:33;;;;;;;3.80;1.90;;;;;;;;;;5074405;28;20448;-60
2021/07/07 06:41:00;;;;;;;2.10;1.80;;;;;;;;;;5077988;28;20976;-66
2021/07/07 06:43:29;;;;;;;5.13;1.90;;;;;;;;;;5080229;28;20467;-63
2021/07/07 06:45:56;;;;;;;2.97;2.07;;;;;;;;;;5079651;28;20497;-68
2021/07/07 06:48:23;;;;;;;3.60;1.70;;;;;;;;;;5078958;28;20472;-62
2021/07/07 06:50:51;;;;;;;3.20;1.73;;;;;;;;;;5080212;28;20483;-63
2021/07/07 06:53:23;;;;;;;7.63;1.53;;;;;;;;;;5075967;28;20470;-62
2021/07/07 06:55:50;;;;;;;6.40;1.90;;;;;;;;;;5073646;28;20811;-62
2021/07/07 06:58:17;;;;;;;3.00;2.20;;;;;;;;;;5074081;28;20442;-62
2021/07/07 07:00:46;;;;;;;3.63;1.70;;;;;;;;;;5073909;28;20446;-63
2021/07/07 07:03:13;;;;;;;3.10;1.50;;;;;;;;;;5073939;28;20523;-61
2021/07/07 07:05:40;;;;;;;2.57;1.80;;;;;;;;;;5074005;28;20438;-62
2021/07/07 07:08:08;;;;;;;6.80;2.10;;;;;;;;;;5073128;28;20487;-62
2021/07/07 07:10:35;;;;;;;3.27;1.70;;;;;;;;;;5073665;28;20465;-61
2021/07/07 07:13:03;;;;;;;2.50;1.50;;;;;;;;;;5073407;28;20462;-62
2021/07/07 07:15:31;;;;;;;3.23;1.77;;;;;;;;;;5073294;28;20447;-63
2021/07/07 07:17:59;;;;;;;5.10;1.57;;;;;;;;;;5073799;28;20504;-61
2021/07/07 07:20:29;;;;;;;2.20;1.80;;;;;;;;;;5073400;28;20443;-60
2021/07/07 07:22:56;;;;;;;4.40;1.73;;;;;;;;;;5073616;28;20978;-60
2021/07/07 07:25:24;;;;;;;2.90;1.70;;;;;;;;;;5073405;28;20805;-62
2021/07/07 07:27:51;;;;;;;3.43;2.10;;;;;;;;;;5073219;28;20486;-63
2021/07/07 07:30:19;;;;;;;6.77;1.80;;;;;;;;;;5073833;28;20504;-62
2021/07/07 07:32:47;;;;;;;3.40;1.57;;;;;;;;;;5073068;28;20990;-64
2021/07/07 07:35:16;;;;;;;2.80;1.93;;;;;;;;;;5073616;28;20448;-63
2021/07/07 07:37:48;;;;;;;7.03;2.07;;;;;;;;;;5073318;28;20442;-63
2021/07/07 07:40:21;;;;;;;3.63;2.73;;;;;;;;;;5073573;28;20470;-63
2021/07/07 07:42:48;;;;;;;4.40;1.93;;;;;;;;;;5072815;28;20467;-63
2021/07/07 07:45:16;;;;;;;3.73;2.23;;;;;;;;;;5073292;28;20451;-63
2021/07/07 07:47:44;;;;;;;5.53;1.97;;;;;;;;;;5072707;28;20903;-63
2021/07/07 07:50:12;;;;;;;4.37;2.37;;;;;;;;;;5072802;28;20489;-63
2021/07/07 07:52:41;;;;;;;6.87;1.87;;;;;;;;;;5073024;28;20499;-63
2021/07/07 07:55:08;;;;;;;5.50;1.97;;;;;;;;;;5072655;28;20445;-63
2021/07/07 07:57:37;;;;;;;4.50;1.83;;;;;;;;;;5073637;28;20443;-64
2021/07/07 08:00:05;;;;;;;3.23;2.43;;;;;;;;;;5072774;28;20471;-63
2021/07/07 08:02:33;;;;;;;4.57;1.90;;;;;;;;;;5072947;28;20461;-60
2021/07/07 08:05:00;;;;;;;2.70;1.57;;;;;;;;;;5072869;28;20440;-62
2021/07/07 08:07:28;;;;;;;3.57;2.27;;;;;;;;;;5073157;28;20565;-65
2021/07/07 08:09:57;;;;;;;5.03;1.47;;;;;;;;;;5073843;28;20441;-64
2021/07/07 08:12:25;;;;;;;1.80;1.67;;;;;;;;;;5072528;28;20542;-63
2021/07/07 08:14:52;;;;;;;5.83;1.43;;;;;;;;;;5072534;28;20448;-62
2021/07/07 08:17:20;;;;;;;4.37;1.90;;;;;;;;;;5072745;28;20524;-62
2021/07/07 08:19:47;;;;;;;3.23;1.73;;;;;;;;;;5072739;28;20522;-62
2021/07/07 08:22:14;;;;;;;4.40;1.93;;;;;;;;;;5072230;28;21045;-63
2021/07/07 08:24:42;;;;;;;3.93;1.70;;;;;;;;;;5072938;28;20450;-64
2021/07/07 08:27:10;;;;;;;5.00;2.07;;;;;;;;;;5072046;28;20447;-63
2021/07/07 08:29:38;;;;;;;8.30;2.83;;;;;;;;;;5072827;28;20480;-63
2021/07/07 08:32:05;;;;;;;3.40;1.60;;;;;;;;;;5072806;28;20464;-63
2021/07/07 08:34:33;;;;;;;6.00;1.83;;;;;;;;;;5074166;28;20856;-64
2021/07/07 08:37:00;;;;;;;3.60;1.73;;;;;;;;;;5073240;28;20497;-63
2021/07/07 08:39:28;;;;;;;2.70;1.80;;;;;;;;;;5072763;28;20448;-63
2021/07/07 08:41:55;;;;;;;3.20;1.87;;;;;;;;;;5073064;28;20468;-64
2021/07/07 08:44:25;;;;;;;3.93;2.07;;;;;;;;;;5072733;28;20502;-63
2021/07/07 08:46:53;;;;;;;3.87;1.83;;;;;;;;;;5073217;28;20503;-63
2021/07/07 08:49:20;;;;;;;5.40;1.80;;;;;;;;;;5072165;28;20568;-63
2021/07/07 08:51:48;;;;;;;3.53;2.10;;;;;;;;;;5072324;28;20507;-64
2021/07/07 08:54:16;;;;;;;4.50;2.00;;;;;;;;;;5075072;28;20500;-62
2021/07/07 08:56:44;;;;;;;4.53;2.03;;;;;;;;;;5076412;28;20448;-63
2021/07/07 08:59:12;;;;;;;3.97;1.60;;;;;;;;;;5076219;28;20447;-63
2021/07/07 09:01:54;;;;;;;2.53;2.20;;;;;;;;;;5076143;28;20446;-64
2021/07/07 09:04:29;;;;;;;7.90;1.70;;;;;;;;;;5075987;28;20441;-64
2021/07/07 09:07:00;;;;;;;2.47;1.63;;;;;;;;;;5076478;28;20454;-62
2021/07/07 09:09:37;;;;;;;6.43;1.80;;;;;;;;;;5076034;28;20479;-62
2021/07/07 09:12:12;;;;;;;3.50;1.70;;;;;;;;;;5075306;28;20971;-63
2021/07/07 09:14:39;;;;;;;5.80;1.60;;;;;;;;;;5075992;28;20494;-63
2021/07/07 09:17:12;;;;;;;3.63;1.70;;;;;;;;;;5075974;28;20508;-64
2021/07/07 09:19:41;;;;;;;4.23;1.90;;;;;;;;;;5075793;28;20438;-64
2021/07/07 09:22:10;;;;;;;2.97;1.43;;;;;;;;;;5075337;28;20476;-63
2021/07/07 09:24:39;;;;;;;4.90;1.93;;;;;;;;;;5075416;28;20449;-63
2021/07/07 09:27:07;;;;;;;4.17;1.90;;;;;;;;;;5076298;28;20477;-63
2021/07/07 09:29:35;;;;;;;4.53;1.97;;;;;;;;;;5076607;28;20583;-64
2021/07/07 09:32:13;;;;;;;3.90;2.13;;;;;;;;;;5075258;28;20986;-64
2021/07/07 09:34:42;;;;;;;8.30;2.27;;;;;;;;;;5075281;28;20479;-63
2021/07/07 09:37:09;;;;;;;4.87;2.23;;;;;;;;;;5075460;28;20444;-64
2021/07/07 09:39:37;;;;;;;2.33;1.70;;;;;;;;;;5075351;28;20438;-64
2021/07/07 09:42:05;;;;;;;4.53;1.80;;;;;;;;;;5075607;28;20466;-62
2021/07/07 09:44:33;;;;;;;4.17;1.80;;;;;;;;;;5075608;28;20541;-61
2021/07/07 09:47:01;;;;;;;4.50;1.90;;;;;;;;;;5074974;28;20534;-61
2021/07/07 09:49:29;;;;;;;4.90;2.27;;;;;;;;;;5075075;28;20478;-63
2021/07/07 09:51:58;;;;;;;4.50;1.97;;;;;;;;;;5075396;28;20578;-63
2021/07/07 09:54:25;;;;;;;6.33;2.00;;;;;;;;;;5075363;28;20452;-64
2021/07/07 09:56:52;;;;;;;6.10;2.60;;;;;;;;;;5075332;28;20449;-63
2021/07/07 09:59:20;;;;;;;7.60;2.00;;;;;;;;;;5075928;28;20445;-63
2021/07/07 10:01:47;;;;;;;3.10;1.67;;;;;;;;;;5075903;28;20439;-63
2021/07/07 10:04:16;;;;;;;3.23;1.60;;;;;;;;;;5075631;28;20452;-64
2021/07/07 10:06:44;;;;;;;4.50;1.77;;;;;;;;;;5074986;28;20469;-63
2021/07/07 10:09:13;;;;;;;8.23;1.90;;;;;;;;;;5075767;28;20563;-64
2021/07/07 10:11:40;;;;;;;3.13;1.77;;;;;;;;;;5074926;28;20926;-62
2021/07/07 10:14:11;;;;;;;3.63;2.40;;;;;;;;;;5077638;28;20461;-63
2021/07/07 10:16:38;;;;;;;4.70;1.90;;;;;;;;;;5074992;28;20894;-63
2021/07/07 10:19:06;;;;;;;5.80;2.40;;;;;;;;;;5075208;28;20446;-63
2021/07/07 10:21:33;;;;;;;4.10;1.90;;;;;;;;;;5078204;28;20458;-67
2021/07/07 10:24:01;;;;;;;5.80;1.90;;;;;;;;;;5076937;28;20448;-64
2021/07/07 10:26:30;;;;;;;4.77;2.03;;;;;;;;;;5075624;28;20446;-64
2021/07/07 10:28:58;;;;;;;4.30;1.80;;;;;;;;;;5075180;28;20478;-63
2021/07/07 10:31:29;;;;;;;3.23;2.07;;;;;;;;;;5075348;28;20442;-64
2021/07/07 10:34:02;;;;;;;3.67;1.60;;;;;;;;;;5075743;28;20441;-64
2021/07/07 10:36:32;;;;;;;3.30;1.50;;;;;;;;;;5074692;28;20471;-64
2021/07/07 10:39:01;;;;;;;3.50;1.43;;;;;;;;;;5074663;28;20442;-63
2021/07/07 10:41:47;;;;;;;5.53;2.00;;;;;;;;;;5073919;28;20448;-63
2021/07/07 10:44:38;;;;;;;8.30;2.40;;;;;;;;;;5073850;28;20867;-63
2021/07/07 10:47:09;;;;;;;5.40;1.93;;;;;;;;;;5073482;28;20450;-64
2021/07/07 10:49:39;;;;;;;3.83;1.60;;;;;;;;;;5073841;28;20891;-64
2021/07/07 10:52:07;;;;;;;3.07;1.73;;;;;;;;;;5073985;28;20477;-61
2021/07/07 10:54:35;;;;;;;3.13;1.97;;;;;;;;;;5074047;28;20892;-63
2021/07/07 10:57:04;;;;;;;5.60;1.93;;;;;;;;;;5074384;28;20523;-63
2021/07/07 10:59:34;;;;;;;4.27;1.60;;;;;;;;;;5074279;28;20500;-63
2021/07/07 11:02:06;;;;;;;2.73;1.63;;;;;;;;;;5073848;28;20476;-63
2021/07/07 11:04:38;;;;;;;4.20;1.70;;;;;;;;;;5073609;28;20435;-64
2021/07/07 11:07:24;;;;;;;5.23;1.90;;;;;;;;;;5073491;28;20977;-64
2021/07/07 11:09:53;;;;;;;8.30;6.73;;;;;;;;;;5073524;28;20483;-64
2021/07/07 11:12:21;;;;;;;20.60;15.90;;;;;;;;;;5073265;28;20505;-64
2021/07/07 11:15:04;;;;;;;31.27;27.90;;;;;;;;;;5073622;28;20458;-63
2021/07/07 11:17:32;;;;;;;6.47;5.63;;;;;;;;;;5073013;28;20483;-62
2021/07/07 11:20:00;;;;;;;5.10;2.90;;;;;;;;;;5073164;28;20444;-64
2021/07/07 11:22:28;;;;;;;6.80;2.33;;;;;;;;;;5073420;28;20462;-65
2021/07/07 11:24:56;;;;;;;4.60;2.30;;;;;;;;;;5073187;28;21001;-63
2021/07/07 11:27:23;;;;;;;6.77;2.53;;;;;;;;;;5073274;28;20815;-63
2021/07/07 11:29:50;;;;;;;4.77;2.20;;;;;;;;;;5073227;28;20539;-64
2021/07/07 11:32:26;;;;;;;2.60;1.90;;;;;;;;;;5073512;28;20466;-64
2021/07/07 11:34:54;;;;;;;3.83;1.90;;;;;;;;;;5073100;28;20452;-64
2021/07/07 11:37:22;;;;;;;5.13;1.90;;;;;;;;;;5073950;28;20441;-61
2021/07/07 11:40:07;;;;;;;6.97;1.50;;;;;;;;;;5072818;28;20807;-64
2021/07/07 11:42:35;;;;;;;4.67;1.80;;;;;;;;;;5073158;28;20842;-63
2021/07/07 11:45:03;;;;;;;4.00;1.70;;;;;;;;;;5072816;28;20948;-65
2021/07/07 11:47:34;;;;;;;3.43;1.47;;;;;;;;;;5073000;28;20454;-63
2021/07/07 11:50:05;;;;;;;4.07;1.50;;;;;;;;;;5072992;28;20467;-63
2021/07/07 11:52:32;;;;;;;5.80;1.90;;;;;;;;;;5072949;28;20468;-63
2021/07/07 11:55:00;;;;;;;5.53;2.30;;;;;;;;;;5073097;28;20463;-63
2021/07/07 11:57:27;;;;;;;6.13;1.90;;;;;;;;;;5074167;28;20449;-63
2021/07/07 11:59:55;;;;;;;4.60;1.80;;;;;;;;;;5074594;28;20508;-63
2021/07/07 12:02:22;;;;;;;4.73;2.10;;;;;;;;;;5075450;28;20462;-64
2021/07/07 12:04:51;;;;;;;5.13;2.03;;;;;;;;;;5072555;28;20503;-64
2021/07/07 12:07:21;;;;;;;4.43;2.03;;;;;;;;;;5073018;28;20453;-63
2021/07/07 12:09:49;;;;;;;2.67;1.77;;;;;;;;;;5072706;28;21067;-63
2021/07/07 12:12:16;;;;;;;4.63;2.00;;;;;;;;;;5072855;28;20552;-64
2021/07/07 12:14:43;;;;;;;5.13;1.50;;;;;;;;;;5073404;28;20452;-62
2021/07/07 12:17:12;;;;;;;3.93;1.83;;;;;;;;;;5072953;28;20938;-63
2021/07/07 12:19:39;;;;;;;3.60;1.80;;;;;;;;;;5073384;28;20443;-63
2021/07/07 12:22:09;;;;;;;4.87;1.77;;;;;;;;;;5073267;28;20576;-63
2021/07/07 12:24:38;;;;;;;8.67;2.00;;;;;;;;;;5072955;28;20945;-63
2021/07/07 12:27:06;;;;;;;4.67;1.83;;;;;;;;;;5072933;28;21007;-64
2021/07/07 12:29:34;;;;;;;3.90;1.83;;;;;;;;;;5076557;28;20478;-64
2021/07/07 12:32:04;;;;;;;3.40;1.70;;;;;;;;;;5076683;28;21031;-63
2021/07/07 12:34:32;;;;;;;5.77;1.70;;;;;;;;;;5077077;28;20492;-63
2021/07/07 12:37:00;;;;;;;3.87;2.00;;;;;;;;;;5077129;28;20510;-63
2021/07/07 12:39:30;;;;;;;4.40;1.83;;;;;;;;;;5077622;28;20503;-62
2021/07/07 12:41:58;;;;;;;4.97;1.50;;;;;;;;;;5076854;28;20473;-64
2021/07/07 12:44:30;;;;;;;6.40;1.60;;;;;;;;;;5077278;28;20560;-64
2021/07/07 12:46:58;;;;;;;5.47;2.10;;;;;;;;;;5076796;28;20806;-62
2021/07/07 12:49:45;;;;;;;4.50;2.23;;;;;;;;;;5076493;28;20488;-64
2021/07/07 12:52:14;;;;;;;4.00;1.90;;;;;;;;;;5077002;28;20466;-65
2021/07/07 12:54:42;;;;;;;4.33;1.60;;;;;;;;;;5076715;28;20477;-64
2021/07/07 12:57:10;;;;;;;2.67;1.77;;;;;;;;;;5076583;28;20447;-64
2021/07/07 12:59:37;;;;;;;9.93;2.30;;;;;;;;;;5076733;28;20502;-63
2021/07/07 13:02:06;;;;;;;5.00;1.90;;;;;;;;;;5075941;28;21005;-63
2021/07/07 13:04:33;;;;;;;2.80;2.03;;;;;;;;;;5075808;28;20504;-63
2021/07/07 13:07:05;;;;;;;6.33;1.50;;;;;;;;;;5076352;28;20951;-64
2021/07/07 13:09:32;;;;;;;4.13;1.97;;;;;;;;;;5075409;28;20800;-63
2021/07/07 13:12:05;;;;;;;3.10;1.63;;;;;;;;;;5076615;28;20464;-64
2021/07/07 13:14:33;;;;;;;3.37;1.83;;;;;;;;;;5075907;28;20795;-63
2021/07/07 13:17:00;;;;;;;4.20;1.77;;;;;;;;;;5075982;28;20449;-64
2021/07/07 13:19:28;;;;;;;3.97;1.30;;;;;;;;;;5076285;28;20494;-64
2021/07/07 13:21:57;;;;;;;5.63;1.60;;;;;;;;;;5076478;28;20536;-62
2021/07/07 13:24:34;;;;;;;4.40;2.30;;;;;;;;;;5075929;28;20937;-64
2021/07/07 13:27:03;;;;;;;8.53;2.00;;;;;;;;;;5076113;28;20429;-64
2021/07/07 13:29:32;;;;;;;5.03;2.20;;;;;;;;;;5075753;28;20485;-62
2021/07/07 13:32:01;;;;;;;6.17;1.83;;;;;;;;;;5075875;28;20471;-65
2021/07/07 13:34:28;;;;;;;3.40;1.70;;;;;;;;;;5075575;28;20447;-64
2021/07/07 13:36:55;;;;;;;4.20;1.90;;;;;;;;;;5075392;28;20444;-63
2021/07/07 13:39:23;;;;;;;5.00;1.80;;;;;;;;;;5075003;28;20864;-63
2021/07/07 13:41:51;;;;;;;3.27;1.57;;;;;;;;;;5075467;28;20471;-64
2021/07/07 13:44:18;;;;;;;4.13;2.10;;;;;;;;;;5075379;28;20453;-61
2021/07/07 13:46:47;;;;;;;4.23;2.30;;;;;;;;;;5075420;28;20519;-63
2021/07/07 13:49:14;;;;;;;3.00;1.43;;;;;;;;;;5074775;28;20477;-64
2021/07/07 13:51:42;;;;;;;2.33;1.80;;;;;;;;;;5075118;28;20934;-63
2021/07/07 13:54:09;;;;;;;3.50;1.93;;;;;;;;;;5075435;28;20884;-63
2021/07/07 13:56:36;;;;;;;6.60;1.77;;;;;;;;;;5075448;28;20790;-61
2021/07/07 13:59:03;;;;;;;7.00;1.87;;;;;;;;;;5075064;28;21073;-64
2021/07/07 14:01:31;;;;;;;3.60;1.90;;;;;;;;;;5075638;28;20446;-65
2021/07/07 14:03:59;;;;;;;7.50;2.60;;;;;;;;;;5075326;28;20447;-64
2021/07/07 14:06:27;;;;;;;3.27;1.50;;;;;;;;;;5075278;28;20457;-63
2021/07/07 14:08:54;;;;;;;5.00;1.77;;;;;;;;;;5075028;28;20940;-64
2021/07/07 14:11:21;;;;;;;3.93;2.07;;;;;;;;;;5075053;28;20486;-63
2021/07/07 14:13:48;;;;;;;3.40;1.60;;;;;;;;;;5075069;28;20514;-63
2021/07/07 14:16:15;;;;;;;5.00;1.80;;;;;;;;;;5075224;28;20548;-63
2021/07/07 14:18:43;;;;;;;5.27;1.83;;;;;;;;;;5075123;28;20449;-64
2021/07/07 14:21:12;;;;;;;4.20;2.33;;;;;;;;;;5075294;28;20499;-64
2021/07/07 14:23:39;;;;;;;3.70;2.00;;;;;;;;;;5075010;28;20554;-64
2021/07/07 14:26:06;;;;;;;4.60;2.03;;;;;;;;;;5075234;28;20797;-64
2021/07/07 14:28:33;;;;;;;3.47;2.03;;;;;;;;;;5075491;28;20859;-63
2021/07/07 14:31:01;;;;;;;3.97;2.00;;;;;;;;;;5075008;28;20574;-63
2021/07/07 14:33:28;;;;;;;7.60;1.90;;;;;;;;;;5075075;28;20493;-62
2021/07/07 14:35:56;;;;;;;3.70;1.70;;;;;;;;;;5076215;28;20825;-62
2021/07/07 14:38:25;;;;;;;4.43;2.00;;;;;;;;;;5074463;28;20929;-62
2021/07/07 14:40:52;;;;;;;5.50;2.13;;;;;;;;;;5074885;28;20445;-62
2021/07/07 14:43:19;;;;;;;4.47;2.10;;;;;;;;;;5075206;28;20528;-63
2021/07/07 14:45:46;;;;;;;4.60;2.13;;;;;;;;;;5075569;28;20444;-63
2021/07/07 14:48:14;;;;;;;3.10;1.87;;;;;;;;;;5075208;28;20443;-64
2021/07/07 14:50:41;;;;;;;5.47;2.83;;;;;;;;;;5074973;28;20472;-64